Time;durP1;ratioP1;P1;durP2;ratioP2;P2;SDS_P1;SDS_P2;PMS_P1;PMS_P2;Temp;Humidity;BMP_temperature;BMP_pressure;BME280_temperature;BME280_humidity;BME280_pressure;Samples;Min_cycle;Max_cycle;Signal;HPM_P1;HPM_P2
2021/09/10 00:02:22;;;;;;;15.32;6.60;;;19.60;78.20;;;;;;5038422;28;20097;-73
2021/09/10 00:04:47;;;;;;;14.10;7.28;;;19.60;78.20;;;;;;5038860;28;20108;-72
2021/09/10 00:07:13;;;;;;;18.35;7.28;;;19.50;78.10;;;;;;5037532;28;20045;-73
2021/09/10 00:09:39;;;;;;;18.52;7.10;;;19.50;78.00;;;;;;5038653;28;20061;-72
2021/09/10 00:12:05;;;;;;;14.68;6.75;;;19.50;78.20;;;;;;5037343;28;20032;-73
2021/09/10 00:14:31;;;;;;;12.27;5.90;;;19.50;77.40;;;;;;5037242;28;20048;-72
2021/09/10 00:16:57;;;;;;;17.85;7.57;;;19.50;77.40;;;;;;5036846;28;20411;-72
2021/09/10 00:19:22;;;;;;;10.85;6.13;;;19.50;78.20;;;;;;5037513;28;20018;-72
2021/09/10 00:21:48;;;;;;;11.52;5.70;;;19.50;76.90;;;;;;5038383;28;20488;-73
2021/09/10 00:24:14;;;;;;;12.60;6.43;;;19.50;76.50;;;;;;5036947;28;20495;-72
2021/09/10 00:26:40;;;;;;;12.35;5.95;;;19.40;75.80;;;;;;5038205;28;20079;-72
2021/09/10 00:29:06;;;;;;;11.93;5.30;;;19.40;76.50;;;;;;5038402;28;20025;-72
2021/09/10 00:31:31;;;;;;;11.40;5.30;;;19.40;75.50;;;;;;5038059;28;20033;-72
2021/09/10 00:33:57;;;;;;;10.50;5.35;;;19.40;75.20;;;;;;5037845;28;20056;-72
2021/09/10 00:36:23;;;;;;;12.43;6.15;;;19.30;74.80;;;;;;5038139;28;20523;-73
2021/09/10 00:38:49;;;;;;;11.25;5.35;;;19.40;74.50;;;;;;5037586;28;20025;-73
2021/09/10 00:41:14;;;;;;;12.48;6.10;;;19.30;74.70;;;;;;5036812;28;20025;-73
2021/09/10 00:43:40;;;;;;;13.40;5.78;;;19.20;75.40;;;;;;5038153;28;20024;-72
2021/09/10 00:46:06;;;;;;;11.85;5.53;;;19.20;74.70;;;;;;5037691;28;20017;-73
2021/09/10 00:48:32;;;;;;;10.73;5.63;;;19.20;75.00;;;;;;5038075;28;20063;-72
2021/09/10 00:50:58;;;;;;;12.45;5.85;;;19.20;75.00;;;;;;5037852;28;20382;-73
2021/09/10 00:53:24;;;;;;;10.40;5.60;;;19.10;74.70;;;;;;5037993;28;20104;-72
2021/09/10 00:55:50;;;;;;;16.70;6.70;;;19.10;75.00;;;;;;5037781;28;20033;-72
2021/09/10 00:58:17;;;;;;;13.85;6.40;;;19.10;75.90;;;;;;5037795;28;20033;-72
2021/09/10 01:00:43;;;;;;;10.95;6.20;;;19.10;76.00;;;;;;5037478;28;20014;-72
2021/09/10 01:03:11;;;;;;;14.10;6.35;;;19.00;75.20;;;;;;5036541;28;20021;-72
2021/09/10 01:05:40;;;;;;;13.05;5.85;;;19.00;75.10;;;;;;5037565;28;20075;-72
2021/09/10 01:08:06;;;;;;;15.65;6.55;;;18.90;74.80;;;;;;5037783;28;20494;-73
2021/09/10 01:10:33;;;;;;;16.17;7.13;;;19.00;76.30;;;;;;5037303;28;20022;-72
2021/09/10 01:13:00;;;;;;;12.48;5.78;;;18.90;76.20;;;;;;5037682;28;20029;-72
2021/09/10 01:15:27;;;;;;;12.45;6.03;;;18.90;75.60;;;;;;5037503;28;20071;-72
2021/09/10 01:17:53;;;;;;;12.35;5.55;;;18.90;75.10;;;;;;5037924;28;20033;-72
2021/09/10 01:20:19;;;;;;;12.00;6.57;;;19.00;74.90;;;;;;5037440;28;20017;-72
2021/09/10 01:22:45;;;;;;;12.35;6.65;;;18.90;75.30;;;;;;5037572;28;20029;-72
2021/09/10 01:25:16;;;;;;;12.77;6.43;;;19.00;74.80;;;;;;5037262;28;20025;-72
2021/09/10 01:27:49;;;;;;;13.45;6.90;;;19.00;74.70;;;;;;5037342;28;20040;-72
2021/09/10 01:30:18;;;;;;;12.60;5.88;;;18.90;74.60;;;;;;5037266;28;20026;-72
2021/09/10 01:32:44;;;;;;;16.55;7.15;;;18.90;74.80;;;;;;5037233;28;20099;-72
2021/09/10 01:35:12;;;;;;;15.90;7.43;;;18.90;76.80;;;;;;5037366;28;20096;-72
2021/09/10 01:37:38;;;;;;;16.15;7.43;;;18.80;75.90;;;;;;5037339;28;20491;-72
2021/09/10 01:40:06;;;;;;;17.75;8.52;;;18.80;75.90;;;;;;5037218;28;20032;-72
2021/09/10 01:42:32;;;;;;;17.15;8.35;;;18.70;76.20;;;;;;5037263;28;20025;-72
2021/09/10 01:44:58;;;;;;;14.30;6.45;;;18.70;76.90;;;;;;5035957;28;20059;-72
2021/09/10 01:47:24;;;;;;;14.88;7.38;;;18.70;76.10;;;;;;5036005;28;20030;-72
2021/09/10 01:49:49;;;;;;;16.83;6.82;;;18.60;75.90;;;;;;5036011;28;20029;-72
2021/09/10 01:52:15;;;;;;;18.48;7.13;;;18.60;75.60;;;;;;5041051;28;20083;-72
2021/09/10 01:54:41;;;;;;;13.43;7.10;;;18.50;76.00;;;;;;5041015;28;20025;-72
2021/09/10 01:57:07;;;;;;;15.63;6.93;;;18.50;75.80;;;;;;5041289;28;20416;-72
2021/09/10 01:59:33;;;;;;;13.38;7.03;;;18.50;75.50;;;;;;5041003;28;20025;-72
2021/09/10 02:01:59;;;;;;;13.00;6.32;;;18.50;75.50;;;;;;5040856;28;20026;-72
2021/09/10 02:04:25;;;;;;;12.00;6.50;;;18.50;75.80;;;;;;5041192;28;20022;-72
2021/09/10 02:06:51;;;;;;;11.57;6.72;;;18.50;75.30;;;;;;5040936;28;20021;-72
2021/09/10 02:09:17;;;;;;;11.82;6.03;;;18.40;74.90;;;;;;5040765;28;20396;-72
2021/09/10 02:11:43;;;;;;;10.57;6.05;;;18.40;75.40;;;;;;5040771;28;20075;-72
2021/09/10 02:14:09;;;;;;;14.65;6.63;;;18.40;75.20;;;;;;5039769;28;20444;-72
2021/09/10 02:16:36;;;;;;;11.20;6.30;;;18.40;75.10;;;;;;5040512;28;20032;-72
2021/09/10 02:19:02;;;;;;;13.93;6.30;;;18.30;75.10;;;;;;5039516;28;20017;-73
2021/09/10 02:21:27;;;;;;;9.88;5.80;;;18.40;75.10;;;;;;5039336;28;20391;-72
2021/09/10 02:23:53;;;;;;;11.07;6.28;;;18.30;74.70;;;;;;5040595;28;20021;-72
2021/09/10 02:26:20;;;;;;;10.75;5.45;;;18.30;74.60;;;;;;5040575;28;20017;-73
2021/09/10 02:28:45;;;;;;;12.73;5.55;;;18.30;74.90;;;;;;5040698;28;20029;-73
2021/09/10 02:31:12;;;;;;;13.00;5.88;;;18.40;75.10;;;;;;5040384;28;20029;-72
2021/09/10 02:33:37;;;;;;;11.60;5.85;;;18.30;75.00;;;;;;5040222;28;20053;-72
2021/09/10 02:36:03;;;;;;;11.30;5.90;;;18.40;75.30;;;;;;5040386;28;20090;-72
2021/09/10 02:38:29;;;;;;;8.93;5.45;;;18.40;75.30;;;;;;5040719;28;20022;-72
2021/09/10 02:40:55;;;;;;;14.18;6.85;;;18.40;75.20;;;;;;5040323;28;20032;-72
2021/09/10 02:43:21;;;;;;;12.48;6.20;;;18.40;75.00;;;;;;5040510;28;20077;-72
2021/09/10 02:45:47;;;;;;;12.60;6.43;;;18.30;75.10;;;;;;5040022;28;20173;-72
2021/09/10 02:48:13;;;;;;;13.23;6.63;;;18.30;75.10;;;;;;5040499;28;20075;-72
2021/09/10 02:50:40;;;;;;;13.73;6.63;;;18.30;75.40;;;;;;5040196;28;20112;-72
2021/09/10 02:53:05;;;;;;;12.27;6.70;;;18.20;75.30;;;;;;5040376;28;20032;-72
2021/09/10 02:55:31;;;;;;;11.55;6.03;;;18.20;75.30;;;;;;5039987;28;20104;-72
2021/09/10 02:57:57;;;;;;;12.98;6.38;;;18.20;75.50;;;;;;5040063;28;20848;-72
2021/09/10 03:00:23;;;;;;;10.70;5.88;;;18.10;75.40;;;;;;5039661;28;20018;-72
2021/09/10 03:02:49;;;;;;;13.07;6.28;;;18.10;75.20;;;;;;5039679;28;20371;-73
2021/09/10 03:05:15;;;;;;;10.63;6.00;;;18.10;75.10;;;;;;5039989;28;20086;-72
2021/09/10 03:07:40;;;;;;;11.55;5.95;;;18.00;75.00;;;;;;5040208;28;20057;-72
2021/09/10 03:10:07;;;;;;;11.32;6.75;;;18.00;74.80;;;;;;5039659;28;20049;-72
2021/09/10 03:12:38;;;;;;;15.50;7.78;;;18.00;76.70;;;;;;5039775;28;20053;-72
2021/09/10 03:15:05;;;;;;;17.67;7.53;;;18.10;77.10;;;;;;5039533;28;20104;-72
2021/09/10 03:17:31;;;;;;;15.65;6.68;;;18.10;76.80;;;;;;5039726;28;20029;-72
2021/09/10 03:19:57;;;;;;;11.93;6.43;;;18.10;76.30;;;;;;5039499;28;20033;-72
2021/09/10 03:22:23;;;;;;;15.02;6.68;;;18.10;75.80;;;;;;5039688;28;20472;-72
2021/09/10 03:24:49;;;;;;;11.57;6.70;;;18.10;75.60;;;;;;5038087;28;20067;-72
2021/09/10 03:27:15;;;;;;;13.82;6.13;;;18.20;75.90;;;;;;5039613;28;20057;-72
2021/09/10 03:29:40;;;;;;;14.98;6.25;;;18.20;75.70;;;;;;5039730;28;20029;-72
2021/09/10 03:32:06;;;;;;;14.75;6.78;;;18.20;75.60;;;;;;5039426;28;20033;-72
2021/09/10 03:34:32;;;;;;;13.50;6.90;;;18.20;75.50;;;;;;5039351;28;20032;-72
2021/09/10 03:36:59;;;;;;;15.35;6.45;;;18.20;75.30;;;;;;5039350;28;20025;-72
2021/09/10 03:39:25;;;;;;;15.90;8.10;;;18.20;75.60;;;;;;5039120;28;20025;-72
2021/09/10 03:41:51;;;;;;;13.70;7.00;;;18.20;76.40;;;;;;5039248;28;20022;-72
2021/09/10 03:44:17;;;;;;;15.40;7.78;;;18.20;76.00;;;;;;5039110;28;20026;-72
2021/09/10 03:46:43;;;;;;;18.15;9.05;;;18.30;76.20;;;;;;5039048;28;20463;-72
2021/09/10 03:49:09;;;;;;;12.05;7.18;;;18.30;77.20;;;;;;5039025;28;20103;-72
2021/09/10 03:51:34;;;;;;;15.75;7.15;;;18.30;77.60;;;;;;5039157;28;20033;-72
2021/09/10 03:54:00;;;;;;;16.95;8.77;;;18.30;77.40;;;;;;5038805;28;20097;-72
2021/09/10 03:56:26;;;;;;;15.68;9.13;;;18.40;79.10;;;;;;5039004;28;20028;-72
2021/09/10 03:58:52;;;;;;;20.30;9.80;;;18.40;79.50;;;;;;5038780;28;20044;-72
2021/09/10 04:01:18;;;;;;;19.98;10.35;;;18.40;80.60;;;;;;5037934;28;20049;-72
2021/09/10 04:03:44;;;;;;;18.58;8.68;;;18.40;80.40;;;;;;5038694;28;20018;-72
2021/09/10 04:06:10;;;;;;;17.52;9.02;;;18.50;80.90;;;;;;5038833;28;20017;-72
2021/09/10 04:08:37;;;;;;;16.88;8.70;;;18.50;81.40;;;;;;5038769;28;20057;-72
2021/09/10 04:11:03;;;;;;;17.33;9.48;;;18.50;81.70;;;;;;5038652;28;20076;-73
2021/09/10 04:13:29;;;;;;;16.58;8.45;;;18.50;82.00;;;;;;5038060;28;20057;-72
2021/09/10 04:15:54;;;;;;;15.80;8.20;;;18.60;82.10;;;;;;5038004;28;20033;-73
2021/09/10 04:18:20;;;;;;;17.08;9.50;;;18.60;82.50;;;;;;5038425;28;20026;-73
2021/09/10 04:20:46;;;;;;;20.15;8.20;;;18.60;82.40;;;;;;5038521;28;20029;-74
2021/09/10 04:23:12;;;;;;;18.88;10.23;;;18.60;81.00;;;;;;5038320;28;20464;-74
2021/09/10 04:25:38;;;;;;;14.13;8.65;;;18.60;81.40;;;;;;5038334;28;20051;-74
2021/09/10 04:28:04;;;;;;;16.35;7.53;;;18.60;80.80;;;;;;5038592;28;20369;-74
2021/09/10 04:30:30;;;;;;;16.92;7.82;;;18.60;80.40;;;;;;5038469;28;20018;-75
2021/09/10 04:32:56;;;;;;;14.48;8.45;;;18.60;80.20;;;;;;5037921;28;20072;-75
2021/09/10 04:35:22;;;;;;;15.55;7.97;;;18.60;80.30;;;;;;5038263;28;20033;-75
2021/09/10 04:37:48;;;;;;;19.60;8.35;;;18.60;80.90;;;;;;5038021;28;20029;-76
2021/09/10 04:40:14;;;;;;;18.35;8.70;;;18.60;80.60;;;;;;5038308;28;20511;-76
2021/09/10 04:42:39;;;;;;;21.20;8.40;;;18.60;81.40;;;;;;5036559;28;20013;-75
2021/09/10 04:45:06;;;;;;;18.00;9.85;;;18.60;81.30;;;;;;5037866;28;20032;-76
2021/09/10 04:47:32;;;;;;;18.48;10.63;;;18.60;82.40;;;;;;5037915;28;20025;-77
2021/09/10 04:49:58;;;;;;;16.92;8.95;;;18.60;82.70;;;;;;5038254;28;20029;-76
2021/09/10 04:52:24;;;;;;;18.70;9.57;;;18.60;82.20;;;;;;5037786;28;20053;-74
2021/09/10 04:54:50;;;;;;;16.50;8.57;;;18.60;82.20;;;;;;5038107;28;20175;-72
2021/09/10 04:57:16;;;;;;;17.42;8.23;;;18.60;81.90;;;;;;5037629;28;20055;-74
2021/09/10 04:59:42;;;;;;;17.95;8.88;;;18.60;81.70;;;;;;5037834;28;20096;-75
2021/09/10 05:02:08;;;;;;;20.92;9.32;;;18.60;81.50;;;;;;5037275;28;20026;-75
2021/09/10 05:04:34;;;;;;;14.13;8.40;;;18.60;81.90;;;;;;5038082;28;20361;-74
2021/09/10 05:07:00;;;;;;;21.40;9.52;;;18.60;81.00;;;;;;5037633;28;20079;-75
2021/09/10 05:09:26;;;;;;;18.08;8.60;;;18.60;81.20;;;;;;5037887;28;20071;-79
2021/09/10 05:11:52;;;;;;;17.65;9.90;;;18.60;81.10;;;;;;5036069;28;20025;-76
2021/09/10 05:14:18;;;;;;;20.95;9.05;;;18.60;81.50;;;;;;5038022;28;20059;-77
2021/09/10 05:16:43;;;;;;;18.02;8.30;;;18.60;81.50;;;;;;5037290;28;20026;-76
2021/09/10 05:19:12;;;;;;;12.48;7.63;;;18.60;81.30;;;;;;5037531;28;20412;-76
2021/09/10 05:21:38;;;;;;;14.55;8.57;;;18.60;80.80;;;;;;5037565;28;20028;-76
2021/09/10 05:24:04;;;;;;;19.83;9.60;;;18.60;80.20;;;;;;5037405;28;20032;-77
2021/09/10 05:26:31;;;;;;;16.60;8.52;;;18.60;81.10;;;;;;5037101;28;20028;-77
2021/09/10 05:28:57;;;;;;;21.20;10.32;;;18.60;80.30;;;;;;5037547;28;20024;-77
2021/09/10 05:31:23;;;;;;;15.25;7.88;;;18.60;80.60;;;;;;5037194;28;20387;-78
2021/09/10 05:33:49;;;;;;;18.13;9.07;;;18.60;80.20;;;;;;5037064;28;20452;-78
2021/09/10 05:36:14;;;;;;;21.85;10.02;;;18.60;80.90;;;;;;5035867;28;20041;-79
2021/09/10 05:38:40;;;;;;;18.58;9.27;;;18.70;82.40;;;;;;5036257;28;20036;-79
2021/09/10 05:41:06;;;;;;;19.38;9.27;;;18.60;81.90;;;;;;5037275;28;20371;-80
2021/09/10 05:43:32;;;;;;;23.33;11.18;;;18.70;83.00;;;;;;5037246;28;20495;-79
2021/09/10 05:45:58;;;;;;;21.15;10.15;;;18.70;83.50;;;;;;5035644;28;20061;-78
2021/09/10 05:48:23;;;;;;;19.65;9.73;;;18.70;83.70;;;;;;5037418;28;20469;-80
2021/09/10 05:50:50;;;;;;;18.90;10.20;;;18.70;83.00;;;;;;5037270;28;20028;-79
2021/09/10 05:53:17;;;;;;;19.15;9.70;;;18.70;83.10;;;;;;5037200;28;20033;-80
2021/09/10 05:55:42;;;;;;;20.85;9.90;;;18.70;82.90;;;;;;5036860;28;20025;-80
2021/09/10 05:58:09;;;;;;;21.88;11.15;;;18.70;83.10;;;;;;5037124;28;20037;-81
2021/09/10 06:00:36;;;;;;;21.38;9.50;;;18.70;83.70;;;;;;5035678;28;20467;-81
2021/09/10 06:03:02;;;;;;;19.48;9.20;;;18.80;84.20;;;;;;5035400;28;20021;-81
2021/09/10 06:05:28;;;;;;;18.85;9.68;;;18.70;83.90;;;;;;5036174;28;20026;-81
2021/09/10 06:07:54;;;;;;;20.50;9.77;;;18.80;84.10;;;;;;5037082;28;20028;-82
2021/09/10 06:10:20;;;;;;;16.90;8.50;;;18.70;84.20;;;;;;5036761;28;20483;-82
2021/09/10 06:12:46;;;;;;;17.48;8.15;;;18.70;84.10;;;;;;5036344;28;20025;-82
2021/09/10 06:15:13;;;;;;;13.57;6.97;;;18.70;84.40;;;;;;5036206;28;20032;-82
2021/09/10 06:17:39;;;;;;;14.57;8.32;;;18.80;83.20;;;;;;5036900;28;20026;-82
2021/09/10 06:20:06;;;;;;;17.13;9.00;;;18.80;84.00;;;;;;5037169;28;20487;-82
2021/09/10 06:22:32;;;;;;;18.30;8.45;;;18.80;85.30;;;;;;5037093;28;20026;-82
2021/09/10 06:24:58;;;;;;;15.05;8.00;;;18.80;85.40;;;;;;5036680;28;20026;-82
2021/09/10 06:27:24;;;;;;;14.00;7.85;;;18.80;84.40;;;;;;5036856;28;20025;-82
2021/09/10 06:29:50;;;;;;;16.75;9.20;;;18.80;84.20;;;;;;5036551;28;20024;-81
2021/09/10 06:32:16;;;;;;;12.02;8.13;;;18.90;86.10;;;;;;5036667;28;20094;-82
2021/09/10 06:34:42;;;;;;;15.50;7.85;;;18.80;85.50;;;;;;5037007;28;20480;-83
2021/09/10 06:37:08;;;;;;;18.70;7.55;;;18.90;85.70;;;;;;5037105;28;20025;-87
2021/09/10 06:39:35;;;;;;;19.17;8.57;;;18.90;85.40;;;;;;5040287;28;20025;-83
2021/09/10 06:42:01;;;;;;;12.55;7.45;;;18.90;86.30;;;;;;5040462;28;20024;-82
2021/09/10 06:44:26;;;;;;;15.02;7.43;;;18.90;85.60;;;;;;5040373;28;20026;-82
2021/09/10 06:46:52;;;;;;;12.30;7.13;;;18.90;85.20;;;;;;5040108;28;20090;-82
2021/09/10 06:49:18;;;;;;;15.60;7.32;;;19.00;85.10;;;;;;5039078;28;20044;-82
2021/09/10 06:51:44;;;;;;;14.30;7.18;;;19.00;86.10;;;;;;5038918;28;20025;-83
2021/09/10 06:54:10;;;;;;;10.50;6.10;;;19.00;85.70;;;;;;5039969;28;20391;-83
2021/09/10 06:56:36;;;;;;;11.07;6.10;;;19.00;85.60;;;;;;5040173;28;20026;-83
2021/09/10 06:59:01;;;;;;;11.95;6.47;;;19.00;85.00;;;;;;5039807;28;20538;-82
2021/09/10 07:01:28;;;;;;;13.13;6.35;;;19.00;85.10;;;;;;5039780;28;20112;-83
2021/09/10 07:03:54;;;;;;;12.77;7.63;;;19.10;84.80;;;;;;5039810;28;20016;-83
2021/09/10 07:06:20;;;;;;;9.35;6.07;;;19.10;85.60;;;;;;5039939;28;20104;-83
2021/09/10 07:08:46;;;;;;;9.02;5.88;;;19.10;85.00;;;;;;5039958;28;20029;-83
2021/09/10 07:11:12;;;;;;;13.18;7.00;;;19.10;84.70;;;;;;5040080;28;20392;-83
2021/09/10 07:13:38;;;;;;;13.10;6.47;;;19.20;85.70;;;;;;5039703;28;20025;-83
2021/09/10 07:16:04;;;;;;;10.95;6.60;;;19.20;85.70;;;;;;5039526;28;20427;-83
2021/09/10 07:18:30;;;;;;;13.25;6.20;;;19.20;85.50;;;;;;5039500;28;20029;-83
2021/09/10 07:20:56;;;;;;;12.30;6.93;;;19.30;85.90;;;;;;5039665;28;20025;-83
2021/09/10 07:23:22;;;;;;;12.07;6.03;;;19.30;85.80;;;;;;5039459;28;20396;-83
2021/09/10 07:25:48;;;;;;;11.30;6.53;;;19.30;85.50;;;;;;5039418;28;20479;-83
2021/09/10 07:28:14;;;;;;;9.68;5.80;;;19.40;86.10;;;;;;5039877;28;20128;-83
2021/09/10 07:30:40;;;;;;;11.90;5.88;;;19.40;85.60;;;;;;5039209;28;20155;-83
2021/09/10 07:33:05;;;;;;;12.70;7.07;;;19.40;85.00;;;;;;5037688;28;20038;-83
2021/09/10 07:35:31;;;;;;;12.73;6.15;;;19.60;85.70;;;;;;5039447;28;20026;-83
2021/09/10 07:37:57;;;;;;;11.95;6.18;;;19.60;85.40;;;;;;5039433;28;20025;-83
2021/09/10 07:40:23;;;;;;;13.18;6.25;;;19.70;84.90;;;;;;5039147;28;20021;-82
2021/09/10 07:42:49;;;;;;;10.65;5.95;;;19.80;85.10;;;;;;5039210;28;20022;-83
2021/09/10 07:45:15;;;;;;;11.43;5.88;;;19.90;84.90;;;;;;5039100;28;20533;-83
2021/09/10 07:47:41;;;;;;;9.15;6.00;;;19.90;84.20;;;;;;5038915;28;20025;-83
2021/09/10 07:50:08;;;;;;;10.82;5.47;;;19.90;84.00;;;;;;5039086;28;20418;-83
2021/09/10 07:52:34;;;;;;;10.18;6.68;;;20.00;84.20;;;;;;5038804;28;20077;-83
2021/09/10 07:55:00;;;;;;;11.55;5.57;;;20.00;84.40;;;;;;5039250;28;20514;-82
2021/09/10 07:57:26;;;;;;;13.57;5.68;;;20.00;84.10;;;;;;5038781;28;20064;-82
2021/09/10 07:59:58;;;;;;;8.38;5.03;;;20.10;83.80;;;;;;5038598;28;20037;-83
2021/09/10 08:02:26;;;;;;;10.48;5.30;;;20.20;83.60;;;;;;5039099;28;20021;-82
2021/09/10 08:04:52;;;;;;;10.18;4.78;;;20.20;83.30;;;;;;5037499;28;20384;-82
2021/09/10 08:07:18;;;;;;;9.48;4.90;;;20.20;83.00;;;;;;5038532;28;20025;-81
2021/09/10 08:09:44;;;;;;;8.73;4.72;;;20.30;83.30;;;;;;5038609;28;20028;-82
2021/09/10 08:12:10;;;;;;;7.25;4.47;;;20.30;83.00;;;;;;5025003;28;20021;-82
2021/09/10 08:14:35;;;;;;;8.10;4.45;;;20.40;83.10;;;;;;5038566;28;20032;-82
2021/09/10 08:17:01;;;;;;;7.03;4.25;;;20.50;82.60;;;;;;5036865;28;20021;-82
2021/09/10 08:19:27;;;;;;;9.13;4.25;;;20.60;82.10;;;;;;5038659;28;20565;-82
2021/09/10 08:21:53;;;;;;;7.03;4.13;;;20.70;82.20;;;;;;5038226;28;20045;-82
2021/09/10 08:24:19;;;;;;;8.98;4.20;;;20.70;81.80;;;;;;5036973;28;20067;-82
2021/09/10 08:26:44;;;;;;;9.98;4.22;;;20.80;81.10;;;;;;5038458;28;20373;-83
2021/09/10 08:29:10;;;;;;;9.23;4.72;;;20.90;80.80;;;;;;5038374;28;20030;-83
2021/09/10 08:31:36;;;;;;;7.78;4.47;;;21.00;80.80;;;;;;5037850;28;20021;-82
2021/09/10 08:34:05;;;;;;;6.90;3.47;;;21.10;80.20;;;;;;5036593;28;20056;-83
2021/09/10 08:36:31;;;;;;;6.75;4.07;;;21.10;80.00;;;;;;5038009;28;20025;-83
2021/09/10 08:38:58;;;;;;;7.80;3.92;;;21.20;80.10;;;;;;5038046;28;20040;-83
2021/09/10 08:41:26;;;;;;;7.93;4.32;;;21.30;80.00;;;;;;5037897;28;20029;-82
2021/09/10 08:43:52;;;;;;;6.70;4.10;;;21.40;79.60;;;;;;5038060;28;20084;-83
2021/09/10 08:46:18;;;;;;;6.80;3.42;;;21.80;80.10;;;;;;5037610;28;20021;-83
2021/09/10 08:48:46;;;;;;;6.07;3.22;;;22.60;79.50;;;;;;5038006;28;20030;-82
2021/09/10 08:51:14;;;;;;;7.57;4.07;;;23.10;77.30;;;;;;5036470;28;20033;-82
2021/09/10 08:53:41;;;;;;;5.22;3.22;;;23.30;75.40;;;;;;5037768;28;20026;-83
2021/09/10 08:56:06;;;;;;;8.85;4.32;;;23.30;75.70;;;;;;5037902;28;20022;-83
2021/09/10 08:58:32;;;;;;;6.65;3.33;;;23.50;73.20;;;;;;5037837;28;20024;-84
2021/09/10 09:00:59;;;;;;;8.07;4.32;;;23.60;75.10;;;;;;5036937;28;20022;-84
2021/09/10 09:03:31;;;;;;;8.02;3.95;;;24.20;73.60;;;;;;5037789;28;20022;-81
2021/09/10 09:05:57;;;;;;;7.00;4.07;;;24.50;72.70;;;;;;5038109;28;20071;-82
2021/09/10 09:08:24;;;;;;;6.40;3.65;;;24.50;71.00;;;;;;5037709;28;20064;-82
2021/09/10 09:11:06;;;;;;;6.68;3.90;;;24.40;69.90;;;;;;5037555;28;20390;-81
2021/09/10 09:13:34;;;;;;;7.18;3.88;;;24.20;69.60;;;;;;5037553;28;20026;-81
2021/09/10 09:16:24;;;;;;;6.38;3.88;;;23.80;69.00;;;;;;5037407;28;20057;-78
2021/09/10 09:18:54;;;;;;;6.97;3.60;;;23.40;69.80;;;;;;5037158;28;20028;-81
2021/09/10 09:21:26;;;;;;;5.43;3.28;;;23.10;71.20;;;;;;5037918;28;20033;-80
2021/09/10 09:23:53;;;;;;;16.50;10.53;;;22.80;71.10;;;;;;5037231;28;20033;-80
2021/09/10 09:26:25;;;;;;;9.82;6.88;;;22.70;71.60;;;;;;5037257;28;20034;-80
2021/09/10 09:29:04;;;;;;;6.15;3.38;;;22.70;72.50;;;;;;5037479;28;20025;-80
2021/09/10 09:31:29;;;;;;;6.72;4.05;;;22.60;71.90;;;;;;5023266;28;20500;-78
2021/09/10 09:33:56;;;;;;;9.02;4.45;;;22.60;71.70;;;;;;5020954;28;20069;-80
2021/09/10 09:36:21;;;;;;;6.35;3.67;;;22.50;71.80;;;;;;5041203;28;20124;-81
2021/09/10 09:38:47;;;;;;;6.15;3.22;;;22.30;71.90;;;;;;5036900;28;20053;-78
2021/09/10 09:41:19;;;;;;;8.25;3.53;;;22.30;72.40;;;;;;5049221;28;20108;-79
2021/09/10 09:43:50;;;;;;;6.20;3.67;;;22.30;73.10;;;;;;5018024;28;20029;-78
2021/09/10 09:46:21;;;;;;;7.22;3.50;;;22.20;72.60;;;;;;5046028;28;20021;-81
2021/09/10 09:48:51;;;;;;;4.70;2.30;;;22.30;73.00;;;;;;5045374;28;20022;-81
2021/09/10 09:51:20;;;;;;;4.97;2.15;;;22.40;72.10;;;;;;5033416;28;20072;-77
2021/09/10 09:53:47;;;;;;;4.70;2.00;;;22.50;71.40;;;;;;5036862;28;20036;-78
2021/09/10 09:56:13;;;;;;;4.03;2.00;;;22.60;71.10;;;;;;5036987;28;20028;-77
2021/09/10 09:58:40;;;;;;;2.85;1.50;;;22.80;71.00;;;;;;5036797;28;20073;-79
2021/09/10 10:01:09;;;;;;;2.88;1.65;;;22.90;69.50;;;;;;5049212;28;20079;-79
2021/09/10 10:03:35;;;;;;;3.45;1.63;;;22.90;68.60;;;;;;5049204;28;20032;-78
2021/09/10 10:06:03;;;;;;;4.30;1.50;;;22.90;69.30;;;;;;5042745;28;20029;-78
2021/09/10 10:08:45;;;;;;;4.43;1.40;;;23.00;70.40;;;;;;5036761;28;20025;-77
2021/09/10 10:11:25;;;;;;;3.53;1.27;;;23.10;70.80;;;;;;5027227;28;20053;-77
2021/09/10 10:13:59;;;;;;;3.20;1.42;;;23.40;71.10;;;;;;5047019;28;20104;-78
2021/09/10 10:16:39;;;;;;;3.92;1.40;;;23.80;70.20;;;;;;5040368;28;20033;-77
2021/09/10 10:19:08;;;;;;;4.28;1.40;;;24.40;71.80;;;;;;5039657;28;20032;-82
2021/09/10 10:21:55;;;;;;;3.03;1.40;;;25.20;70.90;;;;;;5040374;28;20459;-78
2021/09/10 10:24:50;;;;;;;3.15;1.40;;;26.00;63.70;;;;;;5040427;28;20381;-79
2021/09/10 10:27:48;;;;;;;4.00;1.40;;;26.30;62.50;;;;;;5028467;28;20099;-80
2021/09/10 10:30:18;;;;;;;2.95;1.42;;;26.30;61.40;;;;;;5040139;28;20025;-78
2021/09/10 10:32:49;;;;;;;2.60;1.20;;;26.10;62.70;;;;;;5039738;28;20041;-79
2021/09/10 10:35:15;;;;;;;2.65;1.00;;;26.00;63.40;;;;;;5047214;28;20025;-81
2021/09/10 10:37:43;;;;;;;2.45;1.10;;;26.00;62.60;;;;;;5042174;28;20033;-78
2021/09/10 10:40:26;;;;;;;4.93;2.47;;;26.30;63.40;;;;;;5039069;28;20030;-77
2021/09/10 10:42:53;;;;;;;6.38;2.75;;;26.80;60.20;;;;;;5039922;28;20010;-78
2021/09/10 10:45:41;;;;;;;6.00;2.35;;;27.00;62.10;;;;;;5039770;28;20026;-77
2021/09/10 10:48:32;;;;;;;3.90;1.67;;;27.20;62.50;;;;;;5035201;28;20036;-78
2021/09/10 10:51:23;;;;;;;3.20;1.60;;;27.40;59.20;;;;;;5039845;28;20400;-79
2021/09/10 10:53:52;;;;;;;3.20;1.70;;;27.40;57.70;;;;;;5038104;28;20033;-77
2021/09/10 10:56:24;;;;;;;3.80;1.75;;;27.50;58.10;;;;;;5039781;28;20272;-78
2021/09/10 10:59:11;;;;;;;5.13;1.83;;;27.50;56.30;;;;;;5039576;28;20499;-77
2021/09/10 11:02:21;;;;;;;3.53;1.60;;;27.70;55.30;;;;;;5039342;28;20404;-77
2021/09/10 11:04:49;;;;;;;5.38;1.92;;;27.80;57.20;;;;;;5042856;28;20486;-79
2021/09/10 11:07:25;;;;;;;3.65;1.77;;;28.20;56.30;;;;;;5039436;28;20167;-77
2021/09/10 11:10:07;;;;;;;5.88;1.80;;;28.60;56.70;;;;;;5043343;28;20022;-77
2021/09/10 11:12:34;;;;;;;3.90;2.05;;;28.60;56.80;;;;;;5036577;28;20021;-78
2021/09/10 11:15:02;;;;;;;4.53;1.70;;;28.10;54.60;;;;;;5039326;28;20022;-77
2021/09/10 11:17:28;;;;;;;4.35;1.88;;;27.90;55.90;;;;;;5039246;28;20112;-78
2021/09/10 11:19:56;;;;;;;4.47;1.60;;;27.50;56.80;;;;;;5038136;28;20041;-77
2021/09/10 11:22:24;;;;;;;3.60;1.60;;;27.20;57.10;;;;;;5039333;28;20465;-77
2021/09/10 11:25:03;;;;;;;5.35;2.10;;;26.90;57.30;;;;;;5038724;28;20075;-77
2021/09/10 11:27:32;;;;;;;5.57;1.95;;;26.80;57.00;;;;;;5039404;28;20120;-77
2021/09/10 11:30:05;;;;;;;5.18;2.47;;;26.70;57.40;;;;;;5038932;28;20068;-77
2021/09/10 11:32:31;;;;;;;3.45;1.90;;;26.60;57.10;;;;;;5038833;28;20054;-77
2021/09/10 11:34:57;;;;;;;4.60;2.28;;;26.70;59.20;;;;;;5039032;28;20014;-77
2021/09/10 11:37:26;;;;;;;4.78;2.20;;;27.10;57.90;;;;;;5039231;28;20032;-76
2021/09/10 11:39:52;;;;;;;4.45;2.20;;;27.40;57.50;;;;;;5032728;28;20025;-76
2021/09/10 11:42:35;;;;;;;5.97;2.13;;;27.40;55.00;;;;;;5038903;28;20026;-78
2021/09/10 11:45:13;;;;;;;3.90;2.33;;;27.10;53.50;;;;;;5038767;28;20072;-78
2021/09/10 11:47:41;;;;;;;5.05;2.55;;;26.80;53.30;;;;;;5038732;28;20032;-77
2021/09/10 11:50:11;;;;;;;6.72;2.40;;;26.40;54.70;;;;;;5038908;28;20022;-77
2021/09/10 11:52:39;;;;;;;5.68;2.47;;;26.40;56.80;;;;;;5038661;28;20092;-77
2021/09/10 11:55:16;;;;;;;5.72;2.42;;;26.50;55.50;;;;;;5038754;28;20424;-77
2021/09/10 11:57:44;;;;;;;6.50;2.72;;;26.40;54.20;;;;;;5034571;28;20022;-77
2021/09/10 12:00:22;;;;;;;6.80;2.63;;;26.40;54.00;;;;;;5038306;28;20025;-77
2021/09/10 12:03:07;;;;;;;4.82;2.22;;;26.40;55.20;;;;;;5038750;28;20033;-77
2021/09/10 12:05:33;;;;;;;5.75;2.80;;;26.50;54.80;;;;;;5040884;28;20025;-77
2021/09/10 12:07:59;;;;;;;6.05;2.55;;;26.50;54.10;;;;;;5038603;28;20030;-77
2021/09/10 12:10:34;;;;;;;4.80;2.40;;;26.50;54.00;;;;;;5038137;28;20022;-77
2021/09/10 12:13:31;;;;;;;4.75;2.65;;;26.40;54.50;;;;;;5038466;28;20033;-77
2021/09/10 12:15:57;;;;;;;5.35;2.30;;;26.50;55.70;;;;;;5052733;28;20045;-77
2021/09/10 12:18:23;;;;;;;5.95;2.63;;;26.60;55.70;;;;;;5038095;28;20033;-77
2021/09/10 12:20:53;;;;;;;4.60;2.42;;;26.60;54.90;;;;;;5038379;28;20025;-77
2021/09/10 12:23:21;;;;;;;5.40;2.55;;;26.50;54.00;;;;;;5038105;28;20071;-77
2021/09/10 12:26:01;;;;;;;5.60;2.45;;;26.30;53.70;;;;;;5038354;28;20052;-76
2021/09/10 12:28:33;;;;;;;5.55;2.38;;;26.30;53.30;;;;;;5038103;28;20494;-77
2021/09/10 12:31:09;;;;;;;4.20;2.40;;;26.10;53.90;;;;;;5037839;28;20029;-77
2021/09/10 12:33:39;;;;;;;5.57;2.20;;;26.00;54.40;;;;;;5035979;28;20057;-77
2021/09/10 12:36:07;;;;;;;4.03;2.17;;;25.80;54.40;;;;;;5037104;28;20599;-77
2021/09/10 12:38:39;;;;;;;5.30;2.53;;;25.80;54.80;;;;;;5037727;28;20063;-77
2021/09/10 12:41:07;;;;;;;4.70;2.30;;;25.80;55.20;;;;;;5036417;28;20021;-77
2021/09/10 12:43:33;;;;;;;6.28;2.28;;;25.80;54.60;;;;;;5037833;28;20018;-77
2021/09/10 12:46:00;;;;;;;6.97;2.25;;;25.70;55.80;;;;;;5037246;28;20100;-77